createdAt,value
2022-09-28T00:00:17.475Z,0.30
2022-09-28T00:05:42.457Z,0.40
2022-09-28T00:11:13.460Z,0.40
2022-09-28T00:16:40.519Z,1.00
2022-09-28T00:22:04.501Z,0.30
2022-09-28T00:27:32.497Z,1.48
2022-09-28T00:32:56.484Z,0.50
2022-09-28T00:38:23.695Z,0.73
2022-09-28T00:43:51.485Z,0.40
2022-09-28T00:49:21.477Z,0.95
2022-09-28T00:54:45.511Z,0.50
2022-09-28T01:00:15.518Z,0.43
2022-09-28T01:05:40.523Z,0.90
2022-09-28T01:11:06.512Z,1.00
2022-09-28T01:16:41.647Z,0.70
2022-09-28T01:22:40.491Z,0.60
2022-09-28T01:28:21.500Z,0.63
2022-09-28T01:33:49.508Z,0.40
2022-09-28T01:39:18.583Z,0.90
2022-09-28T01:44:49.508Z,1.17
2022-09-28T01:50:19.529Z,0.40
2022-09-28T01:55:48.523Z,0.75
2022-09-28T02:01:19.537Z,0.75
2022-09-28T02:06:52.506Z,0.50
2022-09-28T02:12:24.516Z,2.13
2022-09-28T02:17:52.516Z,1.40
2022-09-28T02:23:20.519Z,1.10
2022-09-28T02:28:45.514Z,1.75
2022-09-28T02:34:13.556Z,1.65
2022-09-28T02:39:40.553Z,1.35
2022-09-28T02:45:29.569Z,1.50
2022-09-28T02:51:06.546Z,1.38
2022-09-28T02:56:50.543Z,1.17
2022-09-28T03:02:23.642Z,0.82
2022-09-28T03:08:05.580Z,0.90
2022-09-28T03:18:55.567Z,2.25
2022-09-28T03:24:24.584Z,3.15
2022-09-28T03:29:48.607Z,0.95
2022-09-28T03:35:14.597Z,2.22
2022-09-28T03:40:41.601Z,1.88
2022-09-28T03:46:08.705Z,1.77
2022-09-28T03:51:37.553Z,1.67
2022-09-28T03:57:05.560Z,2.08
2022-09-28T04:02:29.633Z,1.10
2022-09-28T04:07:54.561Z,1.85
2022-09-28T04:13:15.643Z,1.80
2022-09-28T04:18:33.591Z,2.17
2022-09-28T04:24:18.604Z,2.60
2022-09-28T04:29:45.619Z,1.95
2022-09-28T04:35:10.600Z,1.92
2022-09-28T04:40:34.665Z,3.85
2022-09-28T04:46:02.716Z,3.25
2022-09-28T04:51:33.597Z,3.13
2022-09-28T04:56:59.608Z,3.00
2022-09-28T05:02:26.678Z,4.38
2022-09-28T05:08:15.618Z,2.55
2022-09-28T05:13:42.686Z,2.75
2022-09-28T05:19:12.627Z,3.67
2022-09-28T05:24:37.635Z,4.38
2022-09-28T05:30:01.627Z,4.03
2022-09-28T05:35:51.042Z,3.17
2022-09-28T05:41:18.659Z,4.40
2022-09-28T05:46:43.620Z,3.55
2022-09-28T05:52:10.625Z,3.90
2022-09-28T05:57:36.652Z,2.45
2022-09-28T06:03:10.633Z,4.00
2022-09-28T06:08:40.647Z,4.10
2022-09-28T06:14:31.639Z,3.60
2022-09-28T06:19:58.617Z,4.90
2022-09-28T06:25:41.641Z,5.65
2022-09-28T06:31:09.771Z,4.30
2022-09-28T06:36:37.669Z,4.07
2022-09-28T06:42:05.626Z,3.95
2022-09-28T06:47:49.655Z,4.75
2022-09-28T06:53:23.631Z,4.15
2022-09-28T06:59:02.676Z,5.13
2022-09-28T07:04:34.676Z,5.03
2022-09-28T07:10:03.680Z,3.90
2022-09-28T07:15:53.716Z,7.55
2022-09-28T07:21:28.050Z,3.72
2022-09-28T07:26:55.682Z,8.82
2022-09-28T07:32:38.691Z,6.13
2022-09-28T07:38:13.671Z,4.03
2022-09-28T07:43:38.706Z,2.88
2022-09-28T07:49:08.420Z,4.57
2022-09-28T07:54:52.670Z,1.58
2022-09-28T08:00:44.708Z,2.63
2022-09-28T08:06:20.665Z,1.58
2022-09-28T08:11:45.693Z,3.00
2022-09-28T08:17:28.670Z,1.50
2022-09-28T08:22:59.701Z,1.90
2022-09-28T08:28:25.700Z,2.72
2022-09-28T08:34:06.715Z,3.58
2022-09-28T08:39:55.725Z,3.58
2022-09-28T08:45:43.724Z,2.30
2022-09-28T08:51:37.710Z,1.30
2022-09-28T09:02:54.860Z,0.95
2022-09-28T09:08:42.738Z,0.63
2022-09-28T09:14:30.726Z,0.57
2022-09-28T09:20:06.735Z,1.45
2022-09-28T09:26:01.738Z,0.20
2022-09-28T09:37:24.732Z,0.70
2022-09-28T09:43:48.749Z,1.17
2022-09-28T09:49:37.731Z,0.60
2022-09-28T09:55:09.731Z,0.60
2022-09-28T10:00:44.746Z,0.60
2022-09-28T10:06:33.800Z,1.08
2022-09-28T10:12:02.760Z,0.90
2022-09-28T10:17:33.722Z,0.55
2022-09-28T10:23:26.759Z,0.40
2022-09-28T10:29:00.748Z,0.20
2022-09-28T10:34:28.736Z,0.43
2022-09-28T10:40:07.764Z,1.15
2022-09-28T10:45:38.809Z,0.30
2022-09-28T10:51:18.786Z,0.90
2022-09-28T10:56:49.778Z,1.02
2022-09-28T11:02:41.821Z,0.32
2022-09-28T11:08:20.807Z,0.35
2022-09-28T11:13:53.844Z,1.33
2022-09-28T11:19:44.769Z,0.82
2022-09-28T11:25:30.761Z,0.82
2022-09-28T11:31:01.825Z,0.70
2022-09-28T11:37:11.796Z,0.85
2022-09-28T11:42:50.852Z,0.45
2022-09-28T11:48:19.833Z,1.13
2022-09-28T11:54:02.797Z,0.90
2022-09-28T11:59:33.812Z,0.70
2022-09-28T12:05:11.736Z,1.05
2022-09-28T12:10:45.790Z,2.58
2022-09-28T12:16:53.678Z,0.88
2022-09-28T12:22:14.824Z,0.95
2022-09-28T12:27:46.821Z,0.88
2022-09-28T12:33:17.793Z,1.58
2022-09-28T12:39:17.663Z,1.00
2022-09-28T12:44:59.628Z,0.90
2022-09-28T12:50:40.795Z,1.73
2022-09-28T12:56:13.381Z,2.35
2022-09-28T13:01:56.943Z,0.80
2022-09-28T13:07:37.866Z,1.63
2022-09-28T13:13:15.832Z,2.93
2022-09-28T13:18:46.926Z,1.38
2022-09-28T13:24:31.745Z,0.70
2022-09-28T13:30:00.827Z,1.13
2022-09-28T13:35:27.839Z,0.43
2022-09-28T13:41:22.901Z,1.10
2022-09-28T13:46:58.861Z,0.52
2022-09-28T13:52:27.866Z,0.95
2022-09-28T13:57:57.875Z,0.98
2022-09-28T14:03:41.863Z,0.85
2022-09-28T14:09:31.872Z,0.73
2022-09-28T14:15:06.875Z,2.58
2022-09-28T14:20:36.904Z,1.33
2022-09-28T14:26:14.886Z,0.75
2022-09-28T14:31:40.115Z,0.15
2022-09-28T14:37:19.891Z,0.52
2022-09-28T14:42:44.897Z,0.30
2022-09-28T14:48:30.978Z,0.45
2022-09-28T14:53:59.893Z,0.60
2022-09-28T14:59:31.910Z,0.47
2022-09-28T15:05:00.117Z,0.40
2022-09-28T15:10:38.911Z,0.40
2022-09-28T15:16:08.940Z,0.30
2022-09-28T15:21:35.100Z,0.30
2022-09-28T15:27:03.898Z,1.67
2022-09-28T15:32:40.891Z,0.30
2022-09-28T15:38:05.919Z,1.20
2022-09-28T15:43:44.913Z,0.40
2022-09-28T15:49:10.963Z,0.45
2022-09-28T15:54:41.923Z,2.15
2022-09-28T16:00:09.969Z,0.40
2022-09-28T16:05:48.052Z,0.50
2022-09-28T16:11:22.020Z,0.55
2022-09-28T16:16:54.420Z,0.52
2022-09-28T16:22:29.957Z,1.13
2022-09-28T16:27:58.054Z,0.50
2022-09-28T16:33:47.970Z,0.55
2022-09-28T16:39:12.003Z,0.68
2022-09-28T16:44:40.980Z,0.60
2022-09-28T16:50:09.010Z,0.60
2022-09-28T16:55:40.552Z,0.63
2022-09-28T17:01:04.959Z,0.63
2022-09-28T17:06:33.991Z,0.57
2022-09-28T17:12:02.961Z,0.60
2022-09-28T17:17:27.960Z,0.50
2022-09-28T17:22:54.993Z,0.70
2022-09-28T17:28:27.977Z,0.60
2022-09-28T17:33:52.956Z,0.70
2022-09-28T17:39:24.009Z,0.60
2022-09-28T17:44:47.961Z,0.93
2022-09-28T17:50:30.990Z,0.80
2022-09-28T17:55:58.003Z,1.35
2022-09-28T18:01:23.033Z,1.48
2022-09-28T18:06:57.973Z,1.85
2022-09-28T18:12:25.981Z,1.40
2022-09-28T18:17:49.997Z,1.10
2022-09-28T18:23:14.998Z,1.50
2022-09-28T18:28:42.119Z,1.73
2022-09-28T18:34:09.010Z,1.63
2022-09-28T18:39:34.019Z,1.48
2022-09-28T18:45:01.979Z,1.60
2022-09-28T18:50:26.983Z,1.75
2022-09-28T18:55:53.996Z,2.47
2022-09-28T19:01:29.931Z,1.40
2022-09-28T19:07:02.055Z,1.70
2022-09-28T19:12:27.038Z,1.58
2022-09-28T19:17:55.030Z,1.45
2022-09-28T19:23:20.141Z,1.70
2022-09-28T19:28:48.023Z,1.50
2022-09-28T19:34:16.126Z,1.60
2022-09-28T19:39:41.054Z,1.52
2022-09-28T19:45:06.048Z,1.63
2022-09-28T19:50:33.047Z,1.92
2022-09-28T19:56:00.039Z,1.67
2022-09-28T20:01:24.191Z,1.92
2022-09-28T20:06:52.065Z,2.33
2022-09-28T20:12:18.077Z,1.67
2022-09-28T20:17:46.029Z,1.80
2022-09-28T20:23:15.062Z,1.80
2022-09-28T20:28:41.037Z,1.80
2022-09-28T20:34:06.067Z,2.67
2022-09-28T20:39:34.070Z,2.65
2022-09-28T20:44:59.052Z,2.28
2022-09-28T20:50:24.065Z,3.75
2022-09-28T20:55:51.094Z,2.00
2022-09-28T21:01:24.091Z,2.30
2022-09-28T21:06:50.111Z,2.40
2022-09-28T21:12:18.068Z,2.60
2022-09-28T21:17:42.093Z,2.35
2022-09-28T21:23:09.085Z,2.55
2022-09-28T21:28:36.098Z,2.50
2022-09-28T21:34:01.093Z,3.50
2022-09-28T21:39:27.116Z,3.67
2022-09-28T21:44:58.797Z,3.70
2022-09-28T21:50:31.127Z,4.22
2022-09-28T21:55:59.125Z,2.90
2022-09-28T22:01:28.179Z,2.35
2022-09-28T22:06:53.090Z,2.83
2022-09-28T22:12:18.072Z,2.33
2022-09-28T22:17:48.114Z,2.40
2022-09-28T22:23:12.103Z,2.90
2022-09-28T22:28:37.132Z,2.65
2022-09-28T22:34:04.144Z,2.42
2022-09-28T22:39:29.115Z,3.05
2022-09-28T22:44:53.118Z,3.05
2022-09-28T22:50:21.094Z,2.10
2022-09-28T22:55:45.135Z,2.00
2022-09-28T23:01:16.250Z,1.90
2022-09-28T23:06:44.136Z,1.97
2022-09-28T23:12:09.107Z,1.83
2022-09-28T23:17:33.127Z,1.92
2022-09-28T23:23:01.136Z,1.80
2022-09-28T23:28:26.127Z,1.90
2022-09-28T23:33:51.122Z,1.88
2022-09-28T23:39:18.301Z,1.60
2022-09-28T23:44:43.109Z,2.17
2022-09-28T23:50:07.164Z,1.80
2022-09-28T23:55:35.145Z,1.60
